Time;durP1;ratioP1;P1;durP2;ratioP2;P2;SDS_P1;SDS_P2;PMS_P1;PMS_P2;Temp;Humidity;BMP_temperature;BMP_pressure;BME280_temperature;BME280_humidity;BME280_pressure;Samples;Min_cycle;Max_cycle;Signal;HPM_P1;HPM_P2
2022/11/16 00:01:59;;;;;;;34.13;12.57;;;9.60;99.90;;;8.53;100.00;96109.53;5093676;28;20401;-78
2022/11/16 00:04:25;;;;;;;40.95;12.40;;;9.60;99.90;;;8.53;100.00;96098.97;5092671;28;20455;-79
2022/11/16 00:06:51;;;;;;;38.88;12.95;;;9.60;99.90;;;8.53;100.00;96102.41;5093421;28;20940;-78
2022/11/16 00:09:25;;;;;;;34.60;12.07;;;9.60;99.90;;;8.53;100.00;96104.25;5093564;28;20394;-78
2022/11/16 00:11:55;;;;;;;45.88;13.93;;;9.60;99.90;;;8.53;100.00;96115.59;5093372;28;20390;-78
2022/11/16 00:14:23;;;;;;;35.67;12.30;;;9.60;99.90;;;8.60;100.00;96109.25;5092612;28;20401;-78
2022/11/16 00:16:51;;;;;;;42.00;12.48;;;9.60;99.90;;;8.55;100.00;96112.69;5093147;28;20418;-78
2022/11/16 00:19:17;;;;;;;34.72;12.75;;;9.60;99.90;;;8.54;100.00;96111.91;5078561;28;20405;-78
2022/11/16 00:21:43;;;;;;;39.40;10.75;;;9.60;99.90;;;8.53;100.00;96112.16;5093253;28;20398;-78
2022/11/16 00:24:11;;;;;;;27.75;11.13;;;9.60;99.90;;;8.61;100.00;96102.91;5094243;28;20902;-78
2022/11/16 00:26:37;;;;;;;32.22;11.55;;;9.60;99.90;;;8.55;100.00;96094.22;5092947;28;20464;-78
2022/11/16 00:29:03;;;;;;;36.95;11.57;;;9.60;99.90;;;8.54;100.00;96092.66;5093096;28;20434;-78
2022/11/16 00:31:29;;;;;;;35.45;11.05;;;9.60;99.90;;;8.53;100.00;96091.84;5092988;28;20447;-78
2022/11/16 00:33:56;;;;;;;31.92;11.00;;;9.60;99.90;;;8.54;100.00;96087.38;5092204;28;20491;-78
2022/11/16 00:36:22;;;;;;;35.70;11.05;;;9.60;99.90;;;8.54;100.00;96087.38;5092769;28;20539;-78
2022/11/16 00:38:52;;;;;;;34.05;12.15;;;9.60;99.90;;;8.56;100.00;96084.47;5092995;28;20406;-78
2022/11/16 00:41:18;;;;;;;18.67;9.23;;;9.60;99.90;;;8.68;100.00;96093.66;5092981;28;20394;-78
2022/11/16 00:43:44;;;;;;;28.25;10.30;;;9.60;99.90;;;8.62;100.00;96091.31;5093762;28;20394;-78
2022/11/16 00:46:10;;;;;;;32.35;10.30;;;9.70;99.90;;;8.56;100.00;96093.19;5092600;28;20653;-78
2022/11/16 00:48:35;;;;;;;33.65;10.85;;;9.60;99.90;;;8.53;100.00;96078.66;5092753;28;20913;-78
2022/11/16 00:51:03;;;;;;;37.08;11.23;;;9.60;99.90;;;8.52;100.00;96076.28;5094048;28;20394;-78
2022/11/16 00:53:29;;;;;;;31.40;10.15;;;9.60;99.90;;;8.52;100.00;96081.56;5091862;28;20473;-78
2022/11/16 00:55:55;;;;;;;38.13;11.93;;;9.60;99.90;;;8.50;100.00;96076.56;5074335;28;20517;-78
2022/11/16 00:58:21;;;;;;;32.67;10.70;;;9.60;99.90;;;8.46;100.00;96065.00;5092403;28;20402;-77
2022/11/16 01:00:47;;;;;;;27.48;10.77;;;9.50;99.90;;;8.48;100.00;96070.78;5099302;28;20907;-79
2022/11/16 01:03:13;;;;;;;26.27;8.95;;;9.60;99.90;;;8.45;100.00;96073.16;5093205;28;20422;-78
2022/11/16 01:05:39;;;;;;;32.10;11.63;;;9.50;99.90;;;8.44;100.00;96067.09;5093942;28;20420;-78
2022/11/16 01:08:06;;;;;;;31.30;11.75;;;9.50;99.90;;;8.45;100.00;96062.63;5092856;28;20401;-78
2022/11/16 01:10:32;;;;;;;37.90;10.82;;;9.50;99.90;;;8.43;100.00;96065.50;5094122;28;20409;-78
2022/11/16 01:12:58;;;;;;;23.02;9.35;;;9.50;99.90;;;8.47;100.00;96065.78;5093283;28;20406;-78
2022/11/16 01:15:26;;;;;;;37.70;11.70;;;9.50;99.90;;;8.46;100.00;96064.19;5092558;28;20409;-78
2022/11/16 01:17:54;;;;;;;39.33;11.68;;;9.50;99.90;;;8.48;100.00;96062.09;5092236;28;20429;-78
2022/11/16 01:20:25;;;;;;;31.23;10.85;;;9.50;99.90;;;8.47;100.00;96061.28;5092711;28;20402;-78
2022/11/16 01:22:51;;;;;;;37.67;11.30;;;9.60;99.90;;;8.43;100.00;96054.97;5092413;28;20398;-78
2022/11/16 01:25:19;;;;;;;30.07;10.50;;;9.50;99.90;;;8.41;100.00;96054.47;5074261;28;20497;-78
2022/11/16 01:27:45;;;;;;;34.47;11.25;;;9.50;99.90;;;8.43;100.00;96056.81;5091803;28;20402;-78
2022/11/16 01:30:13;;;;;;;37.63;12.18;;;9.50;99.90;;;8.45;100.00;96052.06;5094017;28;20401;-78
2022/11/16 01:32:39;;;;;;;31.73;11.63;;;9.50;99.90;;;8.46;100.00;96051.81;5091700;28;20398;-78
2022/11/16 01:35:07;;;;;;;33.08;12.25;;;9.50;99.90;;;8.46;100.00;96051.81;5095346;28;20429;-78
2022/11/16 01:37:33;;;;;;;37.05;12.13;;;9.50;99.90;;;8.44;100.00;96056.56;5087739;28;20418;-78
2022/11/16 01:39:59;;;;;;;41.50;11.98;;;9.50;99.90;;;8.42;100.00;96052.63;5100019;28;20440;-78
2022/11/16 01:42:29;;;;;;;37.30;11.98;;;9.50;99.90;;;8.41;100.00;96051.84;5093659;28;20443;-79
2022/11/16 01:45:17;;;;;;;30.88;11.10;;;9.50;99.90;;;8.42;100.00;96047.34;5093363;28;20438;-79
2022/11/16 01:47:43;;;;;;;40.53;12.55;;;9.50;99.90;;;8.42;100.00;96042.84;5113501;28;20435;-79
2022/11/16 01:50:13;;;;;;;28.40;11.55;;;9.50;99.90;;;8.42;100.00;96042.06;5115723;28;20484;-78
2022/11/16 01:52:45;;;;;;;43.40;12.82;;;9.50;99.90;;;8.40;100.00;96041.56;5112103;28;20404;-78
2022/11/16 01:55:11;;;;;;;38.33;12.35;;;9.50;99.90;;;8.40;100.00;96034.44;5112673;28;20970;-78
2022/11/16 01:57:42;;;;;;;41.42;12.32;;;9.50;99.90;;;8.38;100.00;96026.00;5113092;28;20412;-79
2022/11/16 02:00:11;;;;;;;42.20;12.05;;;9.40;99.90;;;8.40;100.00;96034.44;5115340;28;20856;-79
2022/11/16 02:02:37;;;;;;;38.70;12.15;;;9.40;99.90;;;8.41;100.00;96037.84;5114919;28;20404;-79
2022/11/16 02:05:04;;;;;;;38.90;12.43;;;9.50;99.90;;;8.40;100.00;96039.69;5118652;28;20429;-79
2022/11/16 02:10:57;;;;;;;42.45;10.98;;;9.50;99.90;;;8.41;100.00;96045.75;5121446;28;20422;-79
2022/11/16 02:13:38;;;;;;;41.38;11.75;;;9.50;99.90;;;8.42;100.00;96042.06;5125560;28;20438;-79
2022/11/16 02:16:18;;;;;;;31.73;10.63;;;9.40;99.90;;;8.42;100.00;96036.81;5128434;28;20423;-78
2022/11/16 02:18:54;;;;;;;30.38;10.52;;;9.50;99.90;;;8.42;100.00;96045.47;5123776;28;20520;-79
2022/11/16 02:21:34;;;;;;;26.00;9.77;;;9.50;99.90;;;8.44;100.00;96042.56;5119167;28;20495;-79
2022/11/16 02:24:41;;;;;;;32.08;10.00;;;9.50;99.90;;;8.44;100.00;96035.44;5124662;28;20419;-78
2022/11/16 02:27:50;;;;;;;32.45;10.32;;;9.50;99.90;;;8.46;100.00;96035.19;5065939;28;20528;-78
2022/11/16 02:30:19;;;;;;;27.33;9.88;;;9.50;99.90;;;8.48;100.00;96036.50;5135317;27;20421;-78
2022/11/16 02:32:51;;;;;;;20.00;8.75;;;9.60;99.90;;;8.51;100.00;96030.69;5114546;28;20460;-78
2022/11/16 02:35:24;;;;;;;28.65;10.18;;;9.50;99.90;;;8.49;100.00;96035.41;5129609;28;20398;-78
2022/11/16 02:37:55;;;;;;;31.87;9.57;;;9.50;99.90;;;8.49;100.00;96026.75;5121474;28;21013;-78
2022/11/16 02:40:25;;;;;;;33.40;10.13;;;9.50;99.90;;;8.48;100.00;96025.16;5121026;28;20400;-78
2022/11/16 02:42:55;;;;;;;29.95;9.05;;;9.50;99.90;;;8.48;100.00;96022.53;5109485;28;20492;-78
2022/11/16 02:45:28;;;;;;;33.35;9.10;;;9.50;99.90;;;8.48;100.00;96020.69;5138244;28;20463;-78
2022/11/16 02:48:01;;;;;;;30.67;9.50;;;9.50;99.90;;;8.50;100.00;96023.03;5117159;28;20468;-78
2022/11/16 02:50:31;;;;;;;34.15;9.15;;;9.60;99.90;;;8.49;100.00;96024.88;5119040;28;20408;-78
2022/11/16 02:52:58;;;;;;;34.60;9.23;;;9.50;99.90;;;8.50;100.00;96020.38;5137773;27;20388;-78
2022/11/16 02:55:27;;;;;;;25.92;9.07;;;9.60;99.90;;;8.51;100.00;96019.34;5136633;28;20467;-78
2022/11/16 02:57:57;;;;;;;30.02;8.95;;;9.60;99.90;;;8.51;100.00;96017.50;5135885;28;20412;-78
2022/11/16 03:00:32;;;;;;;24.85;8.13;;;9.60;99.90;;;8.52;100.00;96026.19;5137948;27;20423;-78
2022/11/16 03:03:15;;;;;;;32.42;9.60;;;9.60;99.90;;;8.52;100.00;96018.28;5137467;28;20388;-79
2022/11/16 03:05:47;;;;;;;28.02;8.75;;;9.60;99.90;;;8.53;100.00;96025.13;5119124;28;20502;-80
2022/11/16 03:08:20;;;;;;;29.27;8.73;;;9.60;99.90;;;8.51;100.00;96020.13;5137653;28;20376;-79
2022/11/16 03:13:38;;;;;;;22.67;7.72;;;9.60;99.90;;;8.52;100.00;96011.16;5136011;28;20418;-79
2022/11/16 03:16:12;;;;;;;27.43;7.93;;;9.60;99.90;;;8.53;100.00;96011.94;5119001;28;20461;-80
2022/11/16 03:18:41;;;;;;;23.60;7.97;;;9.60;99.90;;;8.53;100.00;96014.59;5119187;28;20396;-80
2022/11/16 03:21:15;;;;;;;17.60;6.20;;;9.60;99.90;;;8.55;100.00;96015.13;5116310;28;20408;-80
2022/11/16 03:23:43;;;;;;;15.80;6.57;;;9.60;99.90;;;8.54;100.00;96003.78;5130802;28;20444;-79
2022/11/16 03:26:13;;;;;;;22.97;6.77;;;9.60;99.90;;;8.54;100.00;95997.72;5113579;28;20541;-80
2022/11/16 03:28:51;;;;;;;17.65;6.70;;;9.60;99.90;;;8.53;100.00;95996.91;5098856;22;20430;-78
2022/11/16 03:31:25;;;;;;;18.53;6.70;;;9.60;99.90;;;8.52;100.00;95991.91;5090215;28;20390;-78
2022/11/16 03:33:55;;;;;;;17.63;6.55;;;9.60;99.90;;;8.52;100.00;95999.81;5089286;28;20390;-78
2022/11/16 03:36:27;;;;;;;18.67;6.13;;;9.60;99.90;;;8.51;100.00;95991.13;5089861;28;20459;-78
2022/11/16 03:38:56;;;;;;;20.30;6.03;;;9.60;99.90;;;8.50;100.00;95991.38;5090022;28;20533;-78
2022/11/16 03:41:24;;;;;;;23.23;6.68;;;9.50;99.90;;;8.48;100.00;95991.69;5089902;28;20455;-77
2022/11/16 03:43:52;;;;;;;16.05;6.20;;;9.60;99.90;;;8.46;100.00;95987.72;5089249;28;20396;-77
2022/11/16 03:46:20;;;;;;;18.00;5.72;;;9.50;99.90;;;8.44;100.00;95989.84;5089904;28;20447;-78
2022/11/16 03:48:46;;;;;;;17.73;6.10;;;9.50;99.90;;;8.43;100.00;95982.97;5089853;28;20405;-78
2022/11/16 03:51:12;;;;;;;17.48;5.82;;;9.50;99.90;;;8.42;100.00;95987.47;5090119;28;20447;-77
2022/11/16 03:53:38;;;;;;;17.20;5.43;;;9.50;99.90;;;8.45;100.00;95991.41;5089015;28;20405;-77
2022/11/16 03:56:05;;;;;;;18.17;5.63;;;9.50;99.90;;;8.44;100.00;95993.25;5089799;28;20425;-77
2022/11/16 03:58:31;;;;;;;11.43;5.35;;;9.50;99.90;;;8.46;100.00;96014.88;5089666;28;20459;-77
2022/11/16 04:00:57;;;;;;;15.27;5.97;;;9.50;99.90;;;8.48;100.00;96023.31;5090118;28;20462;-78
2022/11/16 04:03:24;;;;;;;14.93;5.40;;;9.50;99.90;;;8.49;100.00;96035.41;5088865;28;20962;-78
2022/11/16 04:25:22;;;;;;;15.05;5.63;;;9.60;99.90;;;8.66;100.00;96063.31;5093801;28;20427;-78
2022/11/16 04:38:48;;;;;;;15.75;6.93;;;9.80;99.90;;;8.77;100.00;96047.19;5095536;28;20463;-78
2022/11/16 04:43:59;;;;;;;17.10;7.40;;;9.70;99.90;;;8.77;100.00;96052.47;5094091;28;20396;-77
2022/11/16 04:49:09;;;;;;;23.90;9.20;;;9.70;99.90;;;8.66;100.00;96044.84;5092904;28;20401;-77
2022/11/16 04:51:36;;;;;;;23.00;9.32;;;9.60;99.90;;;8.68;100.00;96056.72;5090924;28;20437;-77
2022/11/16 04:54:03;;;;;;;25.95;10.25;;;9.70;99.90;;;8.67;100.00;96054.34;5082852;28;20764;-76
2022/11/16 04:56:28;;;;;;;25.70;10.27;;;9.70;99.90;;;8.64;100.00;96045.16;5092275;28;20421;-75
2022/11/16 04:58:54;;;;;;;24.10;9.73;;;9.60;99.90;;;8.66;100.00;96037.72;5092511;28;20434;-77
2022/11/16 05:02:06;;;;;;;24.58;9.60;;;9.70;99.90;;;8.65;100.00;96044.06;5092663;28;20430;-76
2022/11/16 05:04:06;;;;;;;22.35;9.10;;;9.70;99.90;;;8.68;100.00;96043.53;5091286;28;20414;-76
2022/11/16 05:06:32;;;;;;;23.75;9.68;;;9.70;99.90;;;8.66;100.00;96039.56;5092417;28;20421;-76
2022/11/16 05:08:59;;;;;;;20.73;9.55;;;9.60;99.90;;;8.62;100.00;96039.34;5082850;28;20436;-75
2022/11/16 05:11:25;;;;;;;25.37;10.10;;;9.60;99.90;;;8.65;100.00;96038.78;5081176;28;20408;-75
2022/11/16 05:13:51;;;;;;;26.80;10.27;;;9.60;99.90;;;8.60;100.00;96038.81;5080616;28;20402;-75
2022/11/16 05:16:17;;;;;;;18.33;8.98;;;9.60;99.90;;;8.65;100.00;96035.34;5082670;28;20519;-75
2022/11/16 05:18:43;;;;;;;29.08;9.93;;;9.60;99.90;;;8.61;100.00;96039.59;5085801;28;20506;-74
2022/11/16 05:21:09;;;;;;;29.65;10.68;;;9.60;99.90;;;8.58;100.00;96042.78;5080172;28;20464;-73
2022/11/16 05:26:21;;;;;;;25.55;10.13;;;9.60;99.90;;;8.58;100.00;96048.84;5090388;28;20389;-73
2022/11/16 05:28:46;;;;;;;18.58;8.15;;;9.60;99.90;;;8.59;100.00;96053.06;5090708;28;20402;-73
2022/11/16 05:31:12;;;;;;;26.05;9.18;;;9.60;99.90;;;8.62;100.00;96060.44;5081759;28;20398;-73
2022/11/16 05:33:38;;;;;;;34.95;10.90;;;9.60;99.90;;;8.58;100.00;96059.38;5080641;28;20900;-75
2022/11/16 05:36:05;;;;;;;30.92;10.60;;;9.60;99.90;;;8.54;100.00;96058.38;5072186;28;20419;-75
2022/11/16 05:38:31;;;;;;;29.65;10.38;;;9.60;99.90;;;8.53;100.00;96056.78;5070097;28;20972;-74
2022/11/16 05:40:57;;;;;;;24.20;9.53;;;9.60;99.90;;;8.51;100.00;96061.53;5071520;28;20495;-73
2022/11/16 05:43:24;;;;;;;40.13;10.55;;;9.50;99.90;;;8.43;100.00;96049.69;5052453;28;20412;-74
2022/11/16 05:45:50;;;;;;;32.00;10.40;;;9.50;99.90;;;8.37;100.00;96060.53;5083953;28;20421;-73
2022/11/16 05:48:16;;;;;;;40.80;12.17;;;9.40;99.90;;;8.32;100.00;96065.84;5080716;28;20403;-73
2022/11/16 05:50:42;;;;;;;30.77;10.07;;;9.40;99.90;;;8.25;100.00;96063.44;5087170;28;20425;-74
2022/11/16 05:53:08;;;;;;;42.10;11.30;;;9.30;99.90;;;8.20;100.00;96054.75;5090500;28;20489;-73
2022/11/16 05:55:34;;;;;;;26.20;10.07;;;9.30;99.90;;;8.19;100.00;96053.97;5089370;28;20402;-74
2022/11/16 05:58:00;;;;;;;34.45;10.95;;;9.20;99.90;;;8.15;100.00;96056.34;5076163;28;20519;-73
2022/11/16 06:00:27;;;;;;;33.93;11.37;;;9.20;99.90;;;8.12;100.00;96048.97;5071178;28;20522;-73
2022/11/16 06:02:53;;;;;;;27.67;10.57;;;9.20;99.90;;;8.12;100.00;96056.09;5070033;28;20408;-72
2022/11/16 06:05:19;;;;;;;30.10;10.50;;;9.20;99.90;;;8.11;100.00;96052.69;5070732;28;20429;-74
2022/11/16 06:07:45;;;;;;;31.05;10.52;;;9.20;99.90;;;8.09;100.00;96054.78;5070776;28;20860;-74
2022/11/16 06:10:11;;;;;;;43.33;12.07;;;9.20;99.90;;;8.07;100.00;96050.84;5070587;28;20457;-75
2022/11/16 06:12:37;;;;;;;42.10;13.23;;;9.10;99.90;;;8.03;100.00;96050.59;5070714;28;20420;-73
2022/11/16 06:15:04;;;;;;;31.02;10.50;;;9.10;99.90;;;8.01;100.00;96054.53;5070054;28;20881;-72
2022/11/16 06:17:32;;;;;;;36.88;11.35;;;9.10;99.90;;;8.00;100.00;96060.88;5070540;28;20506;-73
2022/11/16 06:19:58;;;;;;;37.87;11.97;;;9.10;99.90;;;8.01;100.00;96063.25;5070765;28;20406;-74
2022/11/16 06:22:24;;;;;;;40.47;12.05;;;9.10;99.90;;;8.01;100.00;96068.50;5070107;28;20407;-74
2022/11/16 06:24:50;;;;;;;30.48;10.88;;;9.10;99.90;;;7.99;100.00;96070.63;5068810;28;20403;-75
2022/11/16 06:27:16;;;;;;;32.25;11.40;;;9.10;99.90;;;8.03;100.00;96076.16;5070363;28;20435;-74
2022/11/16 06:29:42;;;;;;;34.77;12.27;;;9.10;99.90;;;8.05;100.00;96081.94;5070613;28;20935;-74
2022/11/16 06:32:08;;;;;;;37.95;12.43;;;9.10;99.90;;;8.11;100.00;96083.53;5070451;28;21027;-74
2022/11/16 06:34:35;;;;;;;46.23;14.47;;;9.10;99.90;;;8.14;100.00;96088.25;5069375;28;20400;-75
2022/11/16 06:37:01;;;;;;;43.17;12.73;;;9.20;99.90;;;8.15;100.00;96081.91;5068753;28;20812;-75
2022/11/16 06:39:27;;;;;;;37.57;11.93;;;9.20;99.90;;;8.16;100.00;96084.28;5070036;28;20419;-75
2022/11/16 06:41:53;;;;;;;34.70;11.38;;;9.20;99.90;;;8.22;100.00;96092.97;5070306;28;20395;-75
2022/11/16 06:44:19;;;;;;;34.17;10.73;;;9.30;99.90;;;8.27;100.00;96097.47;5069376;28;20411;-74
2022/11/16 06:46:45;;;;;;;28.50;11.10;;;9.30;99.90;;;8.28;100.00;96094.53;5070082;28;20411;-75
2022/11/16 06:49:11;;;;;;;36.63;11.50;;;9.30;99.90;;;8.31;100.00;96106.44;5070159;28;20463;-74
2022/11/16 06:51:38;;;;;;;24.75;9.52;;;9.40;99.90;;;8.39;100.00;96111.94;5070234;28;20400;-74
2022/11/16 06:54:05;;;;;;;38.03;10.63;;;9.40;99.90;;;8.39;100.00;96103.25;5069209;28;20410;-74
2022/11/16 06:56:33;;;;;;;26.27;8.77;;;9.40;99.90;;;8.41;100.00;96107.19;5068729;28;20834;-74
2022/11/16 06:58:59;;;;;;;33.73;9.90;;;9.40;99.90;;;8.46;100.00;96109.03;5070064;28;20408;-74
2022/11/16 07:01:24;;;;;;;31.77;9.98;;;9.50;99.90;;;8.45;100.00;96113.50;5070004;28;20414;-74
2022/11/16 07:03:50;;;;;;;23.00;8.80;;;9.50;99.90;;;8.52;100.00;96115.84;5069188;28;20873;-74
2022/11/16 07:06:16;;;;;;;33.00;9.82;;;9.50;99.90;;;8.50;100.00;96110.84;5069605;28;20399;-74
2022/11/16 07:08:44;;;;;;;29.83;9.80;;;9.60;99.90;;;8.48;100.00;96114.81;5069847;28;20506;-74
2022/11/16 07:11:10;;;;;;;27.40;8.90;;;9.50;99.90;;;8.48;100.00;96123.53;5069888;28;20922;-73
2022/11/16 07:13:37;;;;;;;25.90;9.20;;;9.50;99.90;;;8.48;100.00;96115.63;5069011;28;20404;-73
2022/11/16 07:16:04;;;;;;;14.93;6.87;;;9.50;99.90;;;8.52;100.00;96129.84;5069852;28;20408;-73
2022/11/16 07:18:32;;;;;;;18.58;6.60;;;9.50;99.90;;;8.56;100.00;96132.75;5068500;28;20415;-73
2022/11/16 07:20:58;;;;;;;14.32;6.30;;;9.50;99.90;;;8.55;100.00;96136.44;5069900;28;20404;-74
2022/11/16 07:23:24;;;;;;;18.73;5.80;;;9.60;99.90;;;8.58;100.00;96137.72;5072674;28;20721;-74
2022/11/16 07:25:51;;;;;;;12.68;5.18;;;9.60;99.90;;;8.63;100.00;96146.44;5088957;28;20394;-74
2022/11/16 07:28:17;;;;;;;14.43;4.77;;;9.60;99.90;;;8.66;100.00;96143.25;5077882;28;20399;-74
2022/11/16 07:30:43;;;;;;;9.25;4.30;;;9.70;99.90;;;8.69;100.00;96142.72;5083585;28;20929;-74
2022/11/16 07:33:09;;;;;;;10.00;4.25;;;9.70;99.90;;;8.75;100.00;96146.13;5071789;28;20818;-73
2022/11/16 07:35:35;;;;;;;10.38;4.32;;;9.70;99.90;;;8.88;100.00;96146.31;5085305;28;20411;-73
2022/11/16 07:38:01;;;;;;;9.55;3.70;;;9.80;99.90;;;8.94;100.00;96147.13;5074112;28;20501;-73
2022/11/16 07:40:27;;;;;;;11.25;3.30;;;9.90;99.90;;;9.05;100.00;96150.47;5085090;28;20769;-75
2022/11/16 07:42:56;;;;;;;6.30;3.00;;;10.00;99.90;;;9.15;100.00;96161.78;5087137;28;20406;-75
2022/11/16 07:45:22;;;;;;;4.63;2.67;;;10.10;99.90;;;9.26;100.00;96159.88;5084160;28;20475;-75
2022/11/16 07:47:51;;;;;;;11.68;3.25;;;10.20;99.90;;;9.24;100.00;96159.38;5088831;28;20880;-76
2022/11/16 07:50:17;;;;;;;5.28;2.60;;;10.20;99.90;;;9.23;100.00;96169.16;5088985;28;20398;-75
2022/11/16 07:52:45;;;;;;;8.30;2.67;;;10.20;99.90;;;9.21;100.00;96162.56;5090621;28;20398;-76
2022/11/16 07:55:11;;;;;;;7.10;2.65;;;10.10;99.90;;;9.20;100.00;96159.13;5075639;28;20391;-76
2022/11/16 07:57:37;;;;;;;4.32;2.30;;;10.20;99.90;;;9.16;100.00;96162.59;5085294;28;20790;-76
2022/11/16 08:00:06;;;;;;;10.13;2.70;;;10.10;99.90;;;9.14;100.00;96162.84;5085963;28;20761;-76
2022/11/16 08:02:32;;;;;;;6.07;2.90;;;10.10;99.90;;;9.10;100.00;96166.28;5087164;28;20390;-76
2022/11/16 08:04:57;;;;;;;7.07;2.30;;;10.10;99.90;;;9.16;100.00;96167.88;5091728;28;20451;-76
2022/11/16 08:07:23;;;;;;;8.18;2.50;;;10.10;99.90;;;9.14;100.00;96167.34;5092565;28;20892;-76
2022/11/16 08:09:49;;;;;;;8.82;2.67;;;10.10;99.90;;;9.08;100.00;96171.88;5092819;28;20429;-76
2022/11/16 08:12:16;;;;;;;8.00;2.60;;;10.10;99.90;;;9.08;100.00;96179.78;5092741;28;20502;-75
2022/11/16 08:14:41;;;;;;;10.40;2.90;;;10.10;99.90;;;9.09;100.00;96170.81;5088382;28;20422;-74
2022/11/16 08:17:09;;;;;;;6.95;2.55;;;10.10;99.90;;;9.25;100.00;96168.84;5073883;28;20428;-74
2022/11/16 08:19:35;;;;;;;12.77;2.92;;;10.20;99.90;;;9.19;100.00;96172.59;5074275;28;20402;-75
2022/11/16 08:22:01;;;;;;;5.60;2.78;;;10.20;99.90;;;9.22;100.00;96164.94;5092463;28;20934;-74
2022/11/16 08:24:27;;;;;;;9.05;2.65;;;10.20;99.90;;;9.34;100.00;96161.94;5091433;28;20406;-74
2022/11/16 08:26:53;;;;;;;13.75;2.80;;;10.30;99.90;;;9.47;100.00;96166.63;5089534;28;20398;-74
2022/11/16 08:29:19;;;;;;;7.60;2.10;;;10.40;99.90;;;9.50;100.00;96168.72;5071015;28;20420;-75
2022/11/16 08:31:45;;;;;;;8.30;2.30;;;10.40;99.90;;;9.67;100.00;96160.44;5075346;28;20903;-75
2022/11/16 08:34:12;;;;;;;7.75;2.00;;;10.60;99.90;;;9.60;100.00;96154.69;5079009;28;20962;-75
2022/11/16 08:36:38;;;;;;;5.38;1.83;;;10.60;99.90;;;9.55;100.00;96162.63;5084800;28;20483;-75
2022/11/16 08:39:04;;;;;;;6.05;2.00;;;10.50;99.90;;;9.57;100.00;96171.06;5087822;28;20415;-75
2022/11/16 08:41:30;;;;;;;7.90;2.10;;;10.50;99.90;;;9.49;100.00;96163.72;5090552;28;20776;-75
2022/11/16 08:43:58;;;;;;;6.73;1.90;;;10.50;99.90;;;9.48;100.00;96164.78;5087639;28;21029;-74
2022/11/16 08:46:24;;;;;;;7.13;1.90;;;10.50;99.90;;;9.56;100.00;96174.75;5089139;28;20398;-74
2022/11/16 08:48:54;;;;;;;6.75;1.90;;;10.50;99.90;;;9.49;100.00;96182.19;5073491;28;20413;-75
2022/11/16 08:51:22;;;;;;;7.73;1.97;;;10.50;99.90;;;9.40;100.00;96189.91;5087574;28;20471;-75
2022/11/16 08:53:53;;;;;;;8.73;2.00;;;10.40;99.90;;;9.37;100.00;96185.19;5085445;28;20402;-74
2022/11/16 08:56:19;;;;;;;7.60;2.00;;;10.30;99.90;;;9.40;100.00;96186.50;5078480;28;21018;-75
2022/11/16 08:58:46;;;;;;;9.00;2.40;;;10.30;99.90;;;9.32;100.00;96185.22;5085983;28;20409;-74
2022/11/16 09:01:15;;;;;;;6.83;2.50;;;10.30;99.90;;;9.25;100.00;96187.34;5091126;28;20483;-74
2022/11/16 09:03:42;;;;;;;11.10;2.40;;;10.30;99.90;;;9.17;100.00;96188.69;5074836;28;20425;-74
2022/11/16 09:06:09;;;;;;;6.15;2.28;;;10.20;99.90;;;9.13;100.00;96189.53;5083082;28;20408;-75
2022/11/16 09:08:39;;;;;;;8.75;2.25;;;10.10;99.90;;;9.15;100.00;96185.56;5084418;28;20410;-74
2022/11/16 09:11:06;;;;;;;4.43;2.10;;;10.20;99.90;;;9.28;100.00;96194.72;5075188;28;20423;-74
2022/11/16 09:13:32;;;;;;;5.82;2.20;;;10.30;99.90;;;9.45;100.00;96189.91;5087425;28;20507;-74
2022/11/16 09:15:59;;;;;;;5.90;2.15;;;10.40;99.90;;;9.71;100.00;96182.59;5085040;28;20398;-75
2022/11/16 09:18:26;;;;;;;6.35;2.08;;;10.60;99.90;;;9.93;100.00;96182.19;5080581;28;20605;-75
2022/11/16 09:20:52;;;;;;;9.68;2.85;;;10.80;99.90;;;10.02;100.00;96183.97;5084287;28;20406;-74
2022/11/16 09:23:18;;;;;;;8.70;3.25;;;10.90;99.90;;;10.15;100.00;96179.88;5090631;28;20517;-74
2022/11/16 09:25:47;;;;;;;4.72;2.20;;;11.10;99.90;;;10.28;100.00;96187.22;5087664;28;20410;-74
2022/11/16 09:28:14;;;;;;;3.92;1.85;;;11.20;99.90;;;10.33;100.00;96181.88;5108328;22;20447;-75
2022/11/16 09:30:40;;;;;;;11.57;2.10;;;11.30;99.90;;;10.53;100.00;96185.38;5103524;28;20420;-76
2022/11/16 09:33:06;;;;;;;15.07;2.90;;;11.50;99.90;;;10.75;100.00;96177.78;5102093;28;20396;-76
2022/11/16 09:35:33;;;;;;;2.28;1.55;;;11.80;99.90;;;11.06;100.00;96183.50;5110919;28;20400;-76
2022/11/16 09:37:59;;;;;;;2.77;1.33;;;12.00;99.90;;;11.29;100.00;96181.91;5112029;28;20494;-77
2022/11/16 09:40:30;;;;;;;3.75;1.40;;;12.20;99.90;;;11.29;100.00;96184.53;5112195;28;20530;-76
2022/11/16 09:43:08;;;;;;;2.10;1.30;;;12.30;99.90;;;11.36;100.00;96193.72;5111344;28;20450;-77
2022/11/16 09:45:45;;;;;;;6.00;1.30;;;12.20;99.90;;;11.10;100.00;96198.56;5111989;27;20479;-76
2022/11/16 09:48:14;;;;;;;4.35;1.42;;;12.10;99.90;;;10.90;100.00;96201.41;5111859;28;20402;-76
2022/11/16 09:50:45;;;;;;;5.30;1.27;;;11.90;99.90;;;10.83;100.00;96198.31;5111847;28;20396;-76
2022/11/16 09:53:27;;;;;;;3.10;1.42;;;11.70;99.90;;;11.05;100.00;96200.47;5126901;27;20392;-76
2022/11/16 09:55:56;;;;;;;2.80;1.40;;;11.90;99.90;;;11.31;100.00;96204.38;5125869;27;21214;-76
2022/11/16 09:58:29;;;;;;;3.83;1.65;;;12.20;99.90;;;11.37;100.00;96194.50;5111566;28;20412;-74
2022/11/16 10:01:03;;;;;;;7.22;2.08;;;12.20;99.90;;;11.14;100.00;96186.31;5111203;28;20396;-73
2022/11/16 10:03:37;;;;;;;5.47;2.22;;;12.00;99.90;;;11.20;100.00;96198.41;5110861;28;20385;-76
2022/11/16 10:06:09;;;;;;;3.65;2.00;;;12.00;99.90;;;10.95;100.00;96188.13;5111706;28;20392;-76
2022/11/16 10:08:44;;;;;;;7.70;2.50;;;11.80;99.90;;;11.02;100.00;96188.59;5108779;28;20424;-76
2022/11/16 10:11:44;;;;;;;5.25;1.95;;;11.90;99.90;;;11.25;100.00;96187.78;5111351;28;20400;-77
2022/11/16 10:14:31;;;;;;;4.63;1.88;;;12.10;99.90;;;11.46;100.00;96190.16;5110370;28;20389;-76
2022/11/16 10:17:03;;;;;;;3.83;1.75;;;12.30;99.90;;;11.72;100.00;96195.91;5110471;28;20420;-74
2022/11/16 10:19:40;;;;;;;4.65;1.67;;;12.50;99.90;;;11.78;100.00;96190.28;5111268;28;20397;-74
2022/11/16 10:22:21;;;;;;;4.67;1.70;;;12.60;99.90;;;12.04;100.00;96182.72;5127379;27;20396;-75
2022/11/16 10:24:56;;;;;;;4.47;1.80;;;12.90;99.90;;;11.99;100.00;96182.78;5110547;28;20393;-76
2022/11/16 10:27:52;;;;;;;4.82;1.52;;;12.90;99.90;;;12.82;100.00;96176.59;5105010;27;20420;-76
2022/11/16 10:30:21;;;;;;;3.80;1.50;;;13.30;99.90;;;14.27;100.00;96173.75;5104408;28;20424;-76
2022/11/16 10:32:53;;;;;;;4.78;1.80;;;14.80;99.90;;;14.70;100.00;96163.34;5108825;28;20746;-76
2022/11/16 10:35:27;;;;;;;1.80;1.30;;;15.60;99.90;;;15.03;100.00;96163.00;5109372;28;20905;-76
2022/11/16 10:37:54;;;;;;;1.80;1.17;;;15.90;99.90;;;15.41;100.00;96165.94;5109676;28;20408;-74
2022/11/16 10:40:24;;;;;;;1.80;1.07;;;16.30;99.90;;;15.84;100.00;96158.78;5109358;28;20392;-75
2022/11/16 10:43:00;;;;;;;1.80;0.93;;;16.70;99.90;;;16.02;100.00;96151.53;5109389;28;20400;-77
2022/11/16 10:45:37;;;;;;;2.80;1.00;;;16.90;99.90;;;16.74;100.00;96155.34;5110186;28;20400;-76
2022/11/16 10:48:14;;;;;;;2.10;0.88;;;17.30;99.90;;;17.16;100.00;96153.56;5110778;28;20758;-77
2022/11/16 10:50:45;;;;;;;4.23;0.90;;;17.80;99.90;;;17.20;100.00;96141.94;5110748;28;20881;-77
2022/11/16 10:53:14;;;;;;;1.88;0.98;;;18.00;99.90;;;17.28;100.00;96137.63;5109119;28;22207;-77
2022/11/16 10:55:41;;;;;;;2.20;0.80;;;18.00;99.90;;;17.28;100.00;96141.09;5110603;28;20445;-76
2022/11/16 10:58:07;;;;;;;1.02;0.82;;;17.90;99.90;;;17.45;100.00;96136.72;5110734;28;20415;-76
2022/11/16 11:00:40;;;;;;;2.75;0.75;;;18.20;99.90;;;18.68;100.00;96120.84;5110805;28;20404;-76
2022/11/16 11:03:06;;;;;;;2.35;0.85;;;19.20;99.90;;;18.53;100.00;96128.41;5109917;28;20484;-77
2022/11/16 11:05:33;;;;;;;1.67;0.80;;;19.40;99.90;;;18.42;100.00;96127.25;5110728;28;20404;-76
2022/11/16 11:08:03;;;;;;;1.65;0.70;;;19.40;99.90;;;17.82;100.00;96127.81;5110572;28;20384;-76